createdAt,value
2022-12-29T00:00:06.621Z,10.20
2022-12-29T00:15:37.477Z,10.20
2022-12-29T00:18:05.284Z,10.30
2022-12-29T00:20:56.599Z,10.20
2022-12-29T00:26:34.731Z,10.10
2022-12-29T00:29:40.796Z,10.60
2022-12-29T00:32:29.127Z,10.20
2022-12-29T00:38:02.647Z,10.20
2022-12-29T00:40:48.643Z,10.80
2022-12-29T00:46:04.101Z,10.10
2022-12-29T00:48:50.408Z,10.10
2022-12-29T00:51:17.856Z,10.30
2022-12-29T00:56:13.841Z,9.90
2022-12-29T01:01:10.684Z,9.90
2022-12-29T01:03:40.607Z,9.60
2022-12-29T01:06:11.132Z,10.20
2022-12-29T01:08:39.813Z,9.80
2022-12-29T01:11:09.969Z,10.40
2022-12-29T01:21:07.127Z,10.00
2022-12-29T01:23:34.711Z,10.20
2022-12-29T01:26:17.197Z,10.30
2022-12-29T01:28:45.895Z,10.30
2022-12-29T01:31:15.623Z,10.00
2022-12-29T01:33:44.206Z,10.00
2022-12-29T01:36:15.454Z,10.00
2022-12-29T01:38:43.592Z,10.00
2022-12-29T01:41:12.850Z,10.10
2022-12-29T01:43:50.341Z,10.10
2022-12-29T01:48:49.502Z,10.00
2022-12-29T01:51:18.000Z,10.00
2022-12-29T01:53:46.402Z,9.90
2022-12-29T01:56:20.274Z,9.90
2022-12-29T01:58:53.263Z,9.60
2022-12-29T02:01:22.081Z,9.70
2022-12-29T02:03:51.171Z,9.80
2022-12-29T02:06:34.116Z,9.70
2022-12-29T02:11:31.860Z,9.70
2022-12-29T02:14:03.570Z,11.80
2022-12-29T02:16:34.413Z,9.70
2022-12-29T02:19:39.479Z,9.70
2022-12-29T02:22:18.301Z,9.60
2022-12-29T02:25:27.035Z,9.70
2022-12-29T02:28:31.461Z,9.60
2022-12-29T02:31:15.465Z,9.60
2022-12-29T02:34:08.039Z,9.60
2022-12-29T02:36:41.327Z,9.60
2022-12-29T02:39:33.745Z,9.60
2022-12-29T02:42:16.819Z,9.70
2022-12-29T02:45:07.249Z,9.70
2022-12-29T02:48:04.551Z,9.80
2022-12-29T02:50:52.359Z,9.40
2022-12-29T02:53:40.574Z,9.90
2022-12-29T02:58:35.476Z,9.80
2022-12-29T03:01:40.897Z,11.00
2022-12-29T03:04:40.666Z,9.90
2022-12-29T03:07:21.187Z,9.80
2022-12-29T03:09:57.978Z,10.00
2022-12-29T03:12:47.512Z,9.70
2022-12-29T03:15:37.079Z,10.10
2022-12-29T03:18:13.971Z,9.90
2022-12-29T03:21:12.056Z,9.90
2022-12-29T03:23:41.497Z,10.00
2022-12-29T03:26:12.397Z,10.00
2022-12-29T03:28:53.906Z,10.10
2022-12-29T03:31:26.259Z,10.10
2022-12-29T03:33:56.457Z,10.10
2022-12-29T03:36:39.674Z,10.10
2022-12-29T03:39:13.300Z,10.30
2022-12-29T03:41:45.573Z,10.20
2022-12-29T03:44:14.569Z,10.30
2022-12-29T03:46:42.121Z,10.50
2022-12-29T03:51:38.258Z,10.30
2022-12-29T03:56:34.819Z,10.10
2022-12-29T03:59:04.016Z,10.20
2022-12-29T04:16:36.894Z,10.20
2022-12-29T04:19:07.347Z,10.40
2022-12-29T04:32:11.008Z,10.10
2022-12-29T04:34:45.953Z,10.00
2022-12-29T04:37:13.393Z,10.00
2022-12-29T04:39:42.424Z,10.00
2022-12-29T04:53:01.306Z,10.00
2022-12-29T04:57:56.817Z,9.80
2022-12-29T05:00:24.492Z,10.70
2022-12-29T05:02:53.367Z,9.90
2022-12-29T05:05:21.114Z,9.90
2022-12-29T05:07:51.509Z,12.00
2022-12-29T05:10:19.183Z,9.80
2022-12-29T05:25:09.836Z,9.90
2022-12-29T05:27:49.945Z,9.60
2022-12-29T05:30:26.835Z,9.80
2022-12-29T05:35:22.282Z,10.20
2022-12-29T05:37:49.630Z,9.90
2022-12-29T05:40:17.779Z,9.70
2022-12-29T05:45:37.503Z,10.00
2022-12-29T05:48:16.351Z,10.20
2022-12-29T05:51:05.671Z,10.20
2022-12-29T05:53:41.477Z,10.10
2022-12-29T05:58:36.900Z,9.80
2022-12-29T06:01:04.639Z,10.00
2022-12-29T06:06:01.121Z,10.00
2022-12-29T06:08:30.213Z,10.00
2022-12-29T06:10:57.654Z,10.00
2022-12-29T06:15:54.629Z,10.00
2022-12-29T06:20:52.578Z,9.80
2022-12-29T06:23:20.583Z,10.00
2022-12-29T06:25:49.409Z,9.70
2022-12-29T06:35:44.222Z,9.80
2022-12-29T06:38:11.721Z,9.80
2022-12-29T06:53:46.884Z,9.70
2022-12-29T06:56:15.156Z,9.60
2022-12-29T07:03:38.913Z,9.40
2022-12-29T07:06:06.911Z,9.30
2022-12-29T07:11:02.228Z,9.40
2022-12-29T07:35:42.021Z,9.10
2022-12-29T07:55:35.605Z,9.10
2022-12-29T07:58:03.178Z,9.90
2022-12-29T08:02:59.588Z,8.80
2022-12-29T08:10:23.091Z,8.90
2022-12-29T08:15:19.227Z,8.90
2022-12-29T08:20:14.286Z,9.00
2022-12-29T08:22:41.904Z,8.90
2022-12-29T08:25:09.805Z,10.80
2022-12-29T08:27:37.142Z,9.70
2022-12-29T08:30:05.394Z,8.90
2022-12-29T08:32:32.978Z,8.90
2022-12-29T08:35:00.337Z,9.00
2022-12-29T08:39:59.843Z,8.60
2022-12-29T08:45:00.440Z,8.90
2022-12-29T08:47:29.882Z,8.80
2022-12-29T08:49:58.598Z,8.80
2022-12-29T08:54:53.892Z,8.90
2022-12-29T09:00:06.928Z,8.80
2022-12-29T09:07:31.560Z,8.90
2022-12-29T09:10:00.276Z,8.90
2022-12-29T09:12:32.973Z,8.10
2022-12-29T09:20:20.144Z,8.90
2022-12-29T09:30:25.126Z,8.90
2022-12-29T09:37:51.820Z,9.00
2022-12-29T09:40:34.470Z,9.10
2022-12-29T09:45:55.804Z,9.20
2022-12-29T09:48:59.901Z,8.70
2022-12-29T09:54:22.228Z,9.20
2022-12-29T09:56:51.773Z,9.40
2022-12-29T09:59:27.160Z,9.30
2022-12-29T10:01:57.797Z,9.30
2022-12-29T10:04:28.930Z,9.30
2022-12-29T10:12:49.223Z,9.50
2022-12-29T10:15:34.594Z,9.50
2022-12-29T10:18:09.971Z,9.50
2022-12-29T10:20:56.098Z,9.60
2022-12-29T10:23:37.418Z,10.20
2022-12-29T10:28:35.634Z,9.50
2022-12-29T10:31:21.017Z,9.50
2022-12-29T10:33:56.554Z,9.60
2022-12-29T10:37:01.114Z,9.60
2022-12-29T10:39:37.339Z,9.50
2022-12-29T10:42:19.642Z,9.30
2022-12-29T10:44:49.344Z,9.60
2022-12-29T10:47:22.329Z,9.50
2022-12-29T10:49:50.401Z,9.50
2022-12-29T10:52:21.084Z,9.40
2022-12-29T10:57:40.989Z,9.40
2022-12-29T11:00:21.685Z,9.20
2022-12-29T11:03:13.764Z,8.80
2022-12-29T11:06:00.663Z,9.50
2022-12-29T11:08:34.618Z,9.70
2022-12-29T11:11:07.961Z,9.40
2022-12-29T11:13:49.315Z,9.30
2022-12-29T11:16:28.955Z,10.40
2022-12-29T11:21:34.665Z,9.70
2022-12-29T11:24:04.660Z,9.70
2022-12-29T11:26:34.656Z,9.80
2022-12-29T11:29:22.375Z,10.00
2022-12-29T11:31:59.443Z,9.90
2022-12-29T11:34:31.527Z,9.90
2022-12-29T11:37:26.723Z,9.80
2022-12-29T11:40:16.397Z,9.70
2022-12-29T11:42:53.508Z,9.70
2022-12-29T11:45:25.377Z,9.90
2022-12-29T11:48:15.114Z,9.90
2022-12-29T11:50:49.803Z,9.70
2022-12-29T11:53:22.460Z,10.60
2022-12-29T11:56:13.405Z,9.70
2022-12-29T11:58:41.982Z,10.00
2022-12-29T12:01:30.689Z,10.00
2022-12-29T12:04:17.012Z,9.70
2022-12-29T12:06:58.393Z,10.00
2022-12-29T12:09:32.465Z,9.90
2022-12-29T12:12:01.435Z,10.00
2022-12-29T12:14:47.669Z,9.80
2022-12-29T12:17:55.942Z,9.80
2022-12-29T12:20:49.547Z,9.70
2022-12-29T12:23:50.410Z,9.60
2022-12-29T12:26:22.415Z,9.90
2022-12-29T12:28:59.066Z,12.30
2022-12-29T12:31:50.544Z,10.10
2022-12-29T12:34:32.985Z,10.00
2022-12-29T12:37:09.466Z,9.90
2022-12-29T12:39:56.336Z,9.70
2022-12-29T12:42:54.757Z,9.60
2022-12-29T12:45:47.768Z,10.70
2022-12-29T12:48:41.166Z,9.40
2022-12-29T12:51:36.025Z,9.60
2022-12-29T12:54:19.060Z,9.80
2022-12-29T12:56:49.986Z,10.20
2022-12-29T12:59:49.141Z,10.40
2022-12-29T13:02:54.741Z,10.70
2022-12-29T13:05:27.023Z,11.20
2022-12-29T13:07:54.705Z,11.50
2022-12-29T13:10:41.753Z,11.40
2022-12-29T13:13:36.617Z,11.80
2022-12-29T13:16:17.741Z,10.90
2022-12-29T13:19:01.105Z,11.00
2022-12-29T13:21:58.682Z,10.80
2022-12-29T13:24:36.312Z,10.80
2022-12-29T13:27:37.427Z,10.70
2022-12-29T13:30:15.534Z,10.60
2022-12-29T13:33:01.046Z,10.40
2022-12-29T13:35:46.634Z,10.60
2022-12-29T13:38:30.295Z,10.30
2022-12-29T13:41:03.074Z,10.40
2022-12-29T13:43:33.723Z,10.30
2022-12-29T13:46:10.866Z,10.40
2022-12-29T13:48:40.914Z,10.40
2022-12-29T13:51:11.479Z,11.00
2022-12-29T13:54:01.631Z,11.10
2022-12-29T13:56:44.593Z,11.10
2022-12-29T13:59:41.964Z,11.10
2022-12-29T14:02:34.234Z,11.00
2022-12-29T14:05:04.985Z,10.60
2022-12-29T14:07:39.002Z,10.50
2022-12-29T14:12:40.902Z,10.30
2022-12-29T14:15:14.242Z,10.20
2022-12-29T14:17:45.079Z,10.20
2022-12-29T14:20:23.463Z,10.10
2022-12-29T14:23:10.636Z,10.20
2022-12-29T14:26:01.066Z,10.10
2022-12-29T14:28:41.404Z,10.20
2022-12-29T14:34:07.236Z,10.20
2022-12-29T14:36:39.646Z,10.30
2022-12-29T14:39:44.088Z,10.20
2022-12-29T14:42:11.503Z,10.20
2022-12-29T14:44:57.257Z,10.40
2022-12-29T14:47:35.579Z,10.40
2022-12-29T14:50:15.875Z,10.30
2022-12-29T14:53:02.489Z,10.00
2022-12-29T14:55:58.053Z,9.80
2022-12-29T14:58:40.066Z,9.80
2022-12-29T15:01:40.568Z,9.80
2022-12-29T15:04:31.112Z,9.80
2022-12-29T15:07:00.423Z,9.70
2022-12-29T15:09:43.874Z,9.60
2022-12-29T15:12:36.456Z,9.70
2022-12-29T15:15:20.654Z,9.60
2022-12-29T15:20:29.420Z,9.60
2022-12-29T15:23:05.120Z,9.70
2022-12-29T15:25:32.687Z,9.70
2022-12-29T15:28:07.220Z,9.60
2022-12-29T15:30:36.708Z,9.50
2022-12-29T15:33:19.491Z,9.50
2022-12-29T15:35:52.486Z,9.50
2022-12-29T15:38:33.431Z,9.40
2022-12-29T15:41:23.599Z,9.30
2022-12-29T15:44:22.202Z,9.30
2022-12-29T15:54:20.139Z,9.20
2022-12-29T15:56:49.189Z,12.90
2022-12-29T15:59:32.203Z,9.20
2022-12-29T16:02:05.890Z,9.20
2022-12-29T16:07:41.310Z,9.20
2022-12-29T16:10:36.949Z,9.10
2022-12-29T16:13:27.560Z,9.10
2022-12-29T16:16:04.232Z,8.90
2022-12-29T16:18:36.793Z,9.00
2022-12-29T16:21:19.732Z,9.00
2022-12-29T16:23:51.980Z,8.80
2022-12-29T16:26:22.102Z,9.00
2022-12-29T16:29:03.021Z,10.90
2022-12-29T16:34:14.553Z,8.90
2022-12-29T16:36:54.976Z,8.90
2022-12-29T16:39:31.003Z,8.90
2022-12-29T16:42:00.511Z,9.00
2022-12-29T16:44:30.620Z,8.90
2022-12-29T16:47:12.840Z,9.10
2022-12-29T16:49:49.850Z,8.90
2022-12-29T16:52:26.500Z,8.90
2022-12-29T16:54:57.135Z,9.20
2022-12-29T16:57:27.449Z,8.90
2022-12-29T16:59:58.369Z,9.00
2022-12-29T17:02:28.424Z,10.50
2022-12-29T17:04:56.273Z,8.50
2022-12-29T17:07:27.747Z,8.50
2022-12-29T17:15:22.442Z,8.70
2022-12-29T17:17:52.632Z,8.60
2022-12-29T17:20:27.907Z,8.60
2022-12-29T17:25:36.825Z,8.30
2022-12-29T17:28:13.823Z,8.40
2022-12-29T17:30:42.824Z,8.40
2022-12-29T17:33:18.983Z,8.30
2022-12-29T17:35:50.525Z,8.30
2022-12-29T17:38:28.542Z,8.00
2022-12-29T17:40:56.392Z,8.40
2022-12-29T17:43:25.079Z,8.70
2022-12-29T17:45:58.444Z,8.30
2022-12-29T17:50:54.668Z,8.20
2022-12-29T17:53:29.451Z,8.20
2022-12-29T17:55:57.162Z,9.00
2022-12-29T17:58:26.505Z,7.90
2022-12-29T18:00:58.704Z,8.20
2022-12-29T18:03:37.924Z,8.10
2022-12-29T18:06:08.743Z,9.40
2022-12-29T18:08:37.101Z,8.00
2022-12-29T18:11:15.269Z,8.00
2022-12-29T18:13:46.646Z,7.90
2022-12-29T18:21:24.457Z,7.90
2022-12-29T18:23:52.399Z,8.00
2022-12-29T18:28:56.278Z,7.90
2022-12-29T18:31:27.314Z,7.90
2022-12-29T18:41:28.918Z,7.90
2022-12-29T18:43:57.016Z,8.10
2022-12-29T18:48:54.641Z,7.90
2022-12-29T18:51:25.336Z,7.80
2022-12-29T18:53:54.464Z,8.10
2022-12-29T18:56:26.600Z,7.80
2022-12-29T18:58:54.029Z,7.80
2022-12-29T19:01:26.883Z,8.00
2022-12-29T19:03:54.900Z,7.70
2022-12-29T19:11:17.964Z,7.90
2022-12-29T19:13:45.585Z,7.60
2022-12-29T19:16:19.190Z,7.70
2022-12-29T19:18:53.632Z,7.50
2022-12-29T19:21:25.916Z,7.70
2022-12-29T19:23:53.982Z,7.90
2022-12-29T19:26:36.029Z,7.60
2022-12-29T19:31:32.235Z,7.70
2022-12-29T19:34:02.612Z,7.60
2022-12-29T19:39:00.506Z,7.90
2022-12-29T19:41:28.046Z,7.60
2022-12-29T19:48:55.311Z,7.90
2022-12-29T19:53:56.469Z,7.60
2022-12-29T19:56:25.677Z,7.50
2022-12-29T20:01:23.597Z,7.60
2022-12-29T20:03:53.583Z,7.60
2022-12-29T20:06:21.563Z,7.50
2022-12-29T20:11:19.118Z,7.60
2022-12-29T20:13:47.522Z,7.50
2022-12-29T20:16:18.025Z,7.60
2022-12-29T20:18:47.585Z,7.50
2022-12-29T20:21:18.655Z,7.60
2022-12-29T20:26:19.892Z,7.80
2022-12-29T20:28:49.127Z,7.70
2022-12-29T20:31:27.329Z,9.60
2022-12-29T20:33:56.477Z,7.60
2022-12-29T20:36:31.371Z,7.30
2022-12-29T20:39:00.514Z,7.40
2022-12-29T20:46:35.349Z,7.40
2022-12-29T20:52:04.419Z,7.40
2022-12-29T20:54:26.143Z,7.50
2022-12-29T20:56:53.466Z,8.60
2022-12-29T20:59:28.915Z,8.40
2022-12-29T21:01:58.194Z,7.10
2022-12-29T21:04:26.901Z,6.70
2022-12-29T21:06:56.180Z,6.90
2022-12-29T21:09:23.527Z,7.10
2022-12-29T21:11:51.383Z,7.00
2022-12-29T21:14:18.766Z,6.90
2022-12-29T21:16:47.284Z,7.00
2022-12-29T21:19:16.439Z,7.00
2022-12-29T21:21:45.409Z,7.50
2022-12-29T21:26:40.500Z,7.00
2022-12-29T21:29:08.064Z,6.70
2022-12-29T21:31:37.370Z,7.70
2022-12-29T21:34:05.848Z,7.10
2022-12-29T21:36:34.465Z,9.60
2022-12-29T21:39:03.836Z,6.80
2022-12-29T21:41:32.096Z,6.70
2022-12-29T21:46:49.130Z,6.90
2022-12-29T21:49:17.718Z,6.90
2022-12-29T21:54:38.137Z,6.90
2022-12-29T21:57:06.338Z,6.80
2022-12-29T21:59:54.095Z,6.80
2022-12-29T22:02:46.095Z,6.80
2022-12-29T22:05:34.631Z,6.90
2022-12-29T22:08:24.172Z,6.60
2022-12-29T22:11:11.006Z,6.80
2022-12-29T22:13:39.338Z,6.70
2022-12-29T22:16:09.082Z,6.60
2022-12-29T22:21:09.200Z,6.80
2022-12-29T22:23:39.598Z,6.90
2022-12-29T22:26:09.258Z,6.80
2022-12-29T22:28:38.354Z,6.90
2022-12-29T22:31:07.429Z,6.50
2022-12-29T22:38:30.313Z,6.70
2022-12-29T22:41:00.844Z,6.80
2022-12-29T22:46:04.005Z,6.70
2022-12-29T22:48:33.084Z,6.70
2022-12-29T22:56:11.809Z,6.70
2022-12-29T22:58:43.805Z,6.60
2022-12-29T23:01:13.232Z,6.70
2022-12-29T23:03:40.924Z,6.80
2022-12-29T23:06:11.408Z,6.90
2022-12-29T23:08:39.666Z,6.80
2022-12-29T23:11:09.896Z,6.80
2022-12-29T23:13:37.854Z,6.70
2022-12-29T23:16:05.335Z,6.80
2022-12-29T23:18:32.897Z,6.50
2022-12-29T23:21:00.370Z,6.60
2022-12-29T23:26:29.152Z,6.70
2022-12-29T23:29:00.133Z,6.70
2022-12-29T23:31:28.930Z,6.60
2022-12-29T23:33:57.074Z,6.80
2022-12-29T23:36:25.746Z,6.80
2022-12-29T23:38:53.169Z,6.60
2022-12-29T23:41:20.645Z,7.10
2022-12-29T23:43:48.589Z,6.80
2022-12-29T23:46:19.862Z,6.90
2022-12-29T23:48:47.320Z,6.70
2022-12-29T23:51:15.360Z,6.60
2022-12-29T23:53:45.323Z,6.80
2022-12-29T23:56:21.456Z,6.60
2022-12-29T23:58:50.177Z,6.60
